Hagelkans (24u)

Maximale Windstoten (24u)

Maximale Neerslag (24u)

Maximale bewolking (24u)

Minimumtemperatuur (24u)

Maximumtemperatuur (24u)

Neerslag & Bliksem

Onweer Ontladingen

[Source: ADDS]
METAR
EBBR 232250Z 17004KT CAVOK 03/M00 Q1023 NOSIG =
TAF
EBBR 232300Z 2400/2506 21007KT 9999 FEW045 BECMG 2420/2422 28010KT PROB40 TEMPO 2423/2502 32015G25KT 4000 RA SHRA SCT008 BKN014TCU =
SR / SS: 04:28 / 18:53 UTC (Brussels 2017-04-24)

Today 16

Yesterday 316

Week 16

Month 6608

All 4913497

Kubik-Rubik Joomla! Extensions

Go to top